Feni, Bangladesh

8:31 AM BDT on December 20, 2014 (GMT +0600)
M.A. Hannan International | Change Station
CLOSE
Current Station
Airport
Location: Chittagong,
Elevation: 13 ft
Nearby Weather Stations

Elev 13 ft 22.27 °N, 91.82 °E | Updated 1 hour ago

Partly Cloudy
Partly Cloudy
64 °F
Feels Like 64 °F
N
0
Wind Variable Wind from North

Today
High -- | Low -- °F
--% Chance of Precip.
Yesterday
High -- | Low -- °F
Precip. -- in
6:30 AM 5:13 PM
Waning Crescent, 5% visible
Pressure 29.95 in
Visibility 1.0 miles
Clouds Few 10000 ft
Dew Point 59 °F
Humidity 83%
Rainfall 0.00 in
Snow Depth Not available.
UV 0 out of 12
Pollen Not available.
Air Quality Not available.
Flu Activity Not available.
METAR VGEG 200050Z 00000KT 1600 BR FEW100 18/15 Q1014 BECMG S/VIS 1800M-2200M

More Conditions Fewer Conditions

Pressure 29.95 in
Visibility 1.0 miles
Clouds Few 10000 ft
Dew Point 59 °F
Humidity 83%
Rainfall 0.00 in
Snow Depth Not available.
UV 0 out of 12
Pollen Not available.
Air Quality Not available.
Flu Activity Not available.
METAR VGEG 200050Z 00000KT 1600 BR FEW100 18/15 Q1014 BECMG S/VIS 1800M-2200M

More Conditions Fewer Conditions

10-Day Weather Forecast

Almanac

Astronomy

Dec. 20, 2014 Rise Set
Actual Time
Civil Twilight
Nautical Twilight
Astronomical Twilight
Moon
Length of Visible Light
Length of Day
Tomorrow will be .
, % of the Moon is Illuminated

Today's Extremes

Country Highs Country Lows

Community

WunderPhotos

Upload Photos

1,779,114 photos uploaded!

WunderBlogs® & News

Nearby

Air Quality

  Air Quality AQ Index Pollutant
Not available.

Snow Depth

Station Depth Elevation

Earthquake Activity

City Distance Mag. Time & Date
Minimum magnitude displayed is 2.5.

Coastal Water Temperatures

Place Temperature

Nearby Weather Stations